Time;durP1;ratioP1;P1;durP2;ratioP2;P2;SDS_P1;SDS_P2;PMS_P1;PMS_P2;Temp;Humidity;BMP_temperature;BMP_pressure;BME280_temperature;BME280_humidity;BME280_pressure;Samples;Min_cycle;Max_cycle;Signal;HPM_P1;HPM_P2
2022/12/03 00:00:47;;;;;;;59.23;20.87;;;0.00;99.90;;;;;;4126706;28;20447;-80
2022/12/03 00:02:49;;;;;;;63.20;21.27;;;0.00;99.90;;;;;;4106670;28;20471;-79
2022/12/03 00:04:51;;;;;;;64.43;21.50;;;0.00;99.90;;;;;;4125548;28;20483;-79
2022/12/03 00:06:53;;;;;;;59.53;20.47;;;0.00;99.90;;;;;;4124459;28;20472;-80
2022/12/03 00:08:55;;;;;;;58.77;21.03;;;0.00;99.90;;;;;;4122082;28;20432;-80
2022/12/03 00:10:57;;;;;;;53.13;19.53;;;0.00;99.90;;;;;;4122855;28;20548;-80
2022/12/03 00:13:00;;;;;;;61.90;20.63;;;0.00;99.90;;;;;;4128863;28;20570;-79
2022/12/03 00:15:02;;;;;;;65.13;22.07;;;0.00;99.90;;;;;;4124160;28;20469;-80
2022/12/03 00:17:04;;;;;;;60.77;21.20;;;0.00;99.90;;;;;;4111801;28;20489;-79
2022/12/03 00:19:07;;;;;;;60.87;20.87;;;0.00;99.90;;;;;;4128939;28;20458;-80
2022/12/03 00:21:09;;;;;;;66.77;22.07;;;0.30;99.90;;;;;;4108647;28;20497;-79
2022/12/03 00:23:11;;;;;;;61.23;20.93;;;1.00;99.90;;;;;;4110680;28;20450;-80
2022/12/03 00:25:13;;;;;;;59.93;20.33;;;0.00;99.90;;;;;;4125293;28;20452;-79
2022/12/03 00:27:15;;;;;;;57.97;19.30;;;0.00;99.90;;;;;;4123177;28;20549;-79
2022/12/03 00:29:18;;;;;;;59.23;20.87;;;0.00;99.90;;;;;;4123197;28;20471;-80
2022/12/03 00:31:22;;;;;;;57.77;19.93;;;0.40;99.90;;;;;;4104525;28;20473;-79
2022/12/03 00:33:24;;;;;;;55.97;20.27;;;0.00;99.90;;;;;;4125827;28;20479;-80
2022/12/03 00:35:26;;;;;;;55.53;17.90;;;0.00;99.90;;;;;;4124229;28;20451;-80
2022/12/03 00:37:28;;;;;;;59.37;20.13;;;0.00;99.90;;;;;;4106947;28;21157;-80
2022/12/03 00:39:29;;;;;;;58.30;20.03;;;0.00;99.90;;;;;;4123686;28;20475;-80
2022/12/03 00:41:31;;;;;;;61.27;19.67;;;0.00;99.90;;;;;;4125556;28;20514;-80
2022/12/03 00:43:33;;;;;;;59.17;20.17;;;0.00;99.90;;;;;;4128456;28;20490;-79
2022/12/03 00:45:37;;;;;;;59.67;20.93;;;0.00;99.90;;;;;;4122553;28;20462;-80
2022/12/03 00:47:39;;;;;;;55.83;20.50;;;0.00;99.90;;;;;;4125803;28;20452;-80
2022/12/03 00:49:41;;;;;;;62.50;20.50;;;0.40;99.90;;;;;;4124968;28;20451;-80
2022/12/03 00:51:43;;;;;;;54.47;19.10;;;-0.10;99.90;;;;;;4126807;28;20560;-79
2022/12/03 00:53:45;;;;;;;58.20;19.17;;;-0.10;99.90;;;;;;4126632;28;20548;-79
2022/12/03 00:55:49;;;;;;;61.70;20.63;;;0.00;99.90;;;;;;4136355;28;20475;-80
2022/12/03 00:57:51;;;;;;;56.53;19.77;;;-0.10;99.90;;;;;;4121677;28;20541;-80
2022/12/03 00:59:53;;;;;;;58.73;20.23;;;0.00;99.90;;;;;;4135863;28;20986;-79
2022/12/03 01:01:56;;;;;;;56.57;19.97;;;0.00;99.90;;;;;;4132382;28;20459;-79
2022/12/03 01:03:58;;;;;;;52.23;18.73;;;0.00;99.90;;;;;;4110317;28;20487;-79
2022/12/03 01:06:00;;;;;;;57.70;19.87;;;0.00;99.90;;;;;;4126066;28;20468;-79
2022/12/03 01:08:02;;;;;;;65.83;20.33;;;0.00;99.90;;;;;;4126348;28;20452;-79
2022/12/03 01:10:05;;;;;;;58.57;20.30;;;0.00;99.90;;;;;;4110494;28;20454;-80
2022/12/03 01:12:07;;;;;;;61.47;19.57;;;-0.10;99.90;;;;;;4112994;28;20502;-80
2022/12/03 01:14:11;;;;;;;55.70;18.87;;;-0.10;99.90;;;;;;4126678;28;20477;-80
2022/12/03 01:16:13;;;;;;;56.63;19.23;;;0.00;99.90;;;;;;4121847;28;20457;-79
2022/12/03 01:18:16;;;;;;;58.43;20.30;;;0.00;99.90;;;;;;4129867;28;20460;-80
2022/12/03 01:20:18;;;;;;;63.43;21.80;;;-0.10;99.90;;;;;;4123661;28;20460;-80
2022/12/03 01:22:20;;;;;;;61.53;20.80;;;-0.10;99.90;;;;;;4106854;28;20508;-80
2022/12/03 01:24:22;;;;;;;52.20;19.77;;;-0.10;99.90;;;;;;4112158;28;20473;-80
2022/12/03 01:26:25;;;;;;;57.17;19.27;;;-0.10;99.90;;;;;;4120196;28;20440;-80
2022/12/03 01:28:28;;;;;;;54.23;19.40;;;0.10;99.90;;;;;;4122318;28;20468;-80
2022/12/03 01:32:15;;;;;;;54.87;18.77;;;-0.10;99.90;;;;;;4114576;28;20493;-79
2022/12/03 01:32:51;;;;;;;58.47;19.40;;;-0.10;99.90;;;;;;4124749;28;20507;-80
2022/12/03 01:34:55;;;;;;;55.53;20.53;;;-0.10;99.90;;;;;;4124899;28;20520;-80
2022/12/03 01:36:57;;;;;;;61.07;20.63;;;-0.10;99.90;;;;;;4123778;28;20210;-79
2022/12/03 01:38:59;;;;;;;55.33;19.60;;;-0.10;99.90;;;;;;4123950;28;20557;-79
2022/12/03 01:41:01;;;;;;;56.93;19.80;;;-0.10;99.90;;;;;;4121929;28;20563;-80
2022/12/03 01:43:02;;;;;;;60.23;19.57;;;-0.10;99.90;;;;;;4122839;28;21048;-79
2022/12/03 01:45:06;;;;;;;54.03;19.07;;;-0.10;99.90;;;;;;4123511;28;20572;-79
2022/12/03 01:47:13;;;;;;;55.57;19.67;;;-0.10;99.90;;;;;;4125310;28;20495;-80
2022/12/03 01:49:18;;;;;;;52.47;18.93;;;-0.10;99.90;;;;;;4121668;28;21136;-79
2022/12/03 01:51:22;;;;;;;57.70;20.73;;;-0.10;99.90;;;;;;4125368;28;20552;-80
2022/12/03 01:53:24;;;;;;;63.10;21.47;;;-0.10;99.90;;;;;;4126442;28;20580;-79
2022/12/03 01:55:26;;;;;;;52.07;18.80;;;0.00;99.90;;;;;;4124762;28;20546;-79
2022/12/03 01:57:34;;;;;;;61.93;20.30;;;-0.10;99.90;;;;;;4134518;28;20473;-79
2022/12/03 01:59:38;;;;;;;56.33;19.77;;;-0.10;99.90;;;;;;4123467;28;20543;-79
2022/12/03 02:01:40;;;;;;;59.20;19.90;;;-0.10;99.90;;;;;;4125028;28;20464;-79
2022/12/03 02:03:43;;;;;;;52.07;19.37;;;-0.10;99.90;;;;;;4130838;28;20516;-79
2022/12/03 02:05:45;;;;;;;60.60;20.00;;;-0.10;99.90;;;;;;4130043;28;21112;-79
2022/12/03 02:07:48;;;;;;;61.60;20.17;;;0.00;99.90;;;;;;4127406;28;20467;-79
2022/12/03 02:09:51;;;;;;;58.93;20.03;;;0.00;99.90;;;;;;4130553;28;20461;-79
2022/12/03 02:11:52;;;;;;;59.97;19.27;;;-0.10;99.90;;;;;;4129541;28;20499;-78
2022/12/03 02:13:57;;;;;;;58.20;18.97;;;-0.10;99.90;;;;;;4128869;28;20514;-78
2022/12/03 02:15:59;;;;;;;53.17;18.53;;;-0.10;99.90;;;;;;4132114;28;20474;-79
2022/12/03 02:18:01;;;;;;;54.27;17.60;;;-0.10;99.90;;;;;;4128835;28;20494;-78
2022/12/03 02:20:06;;;;;;;53.57;19.13;;;-0.10;99.90;;;;;;4125474;28;20937;-78
2022/12/03 02:22:18;;;;;;;60.03;20.03;;;-0.10;99.90;;;;;;4122254;28;20543;-77
2022/12/03 02:24:27;;;;;;;49.43;18.67;;;-0.10;99.90;;;;;;4126573;28;20494;-79
2022/12/03 02:26:30;;;;;;;60.20;20.00;;;-0.10;99.90;;;;;;4122155;28;21099;-78
2022/12/03 02:28:32;;;;;;;56.17;19.87;;;-0.10;99.90;;;;;;4121455;28;20554;-78
2022/12/03 02:30:34;;;;;;;49.93;18.60;;;-0.10;99.90;;;;;;4120805;28;21056;-79
2022/12/03 02:32:37;;;;;;;48.07;18.07;;;-0.10;99.90;;;;;;4121900;28;20496;-79
2022/12/03 02:34:41;;;;;;;59.07;19.63;;;-0.10;99.90;;;;;;4122684;28;20995;-79
2022/12/03 02:36:42;;;;;;;58.87;19.00;;;-0.10;99.90;;;;;;4118684;28;20496;-79
2022/12/03 02:38:48;;;;;;;53.33;19.40;;;-0.10;99.90;;;;;;4124077;28;20473;-79
2022/12/03 02:40:53;;;;;;;55.20;19.47;;;-0.10;99.90;;;;;;4120758;28;20494;-78
2022/12/03 02:42:58;;;;;;;55.07;19.93;;;-0.10;99.90;;;;;;4125955;28;20524;-78
2022/12/03 02:45:04;;;;;;;51.43;18.23;;;-0.10;99.90;;;;;;4122905;28;20529;-79
2022/12/03 02:47:06;;;;;;;57.07;19.30;;;-0.10;99.90;;;;;;4125124;28;20550;-78
2022/12/03 02:49:08;;;;;;;56.00;19.73;;;-0.10;99.90;;;;;;4122204;28;20467;-78
2022/12/03 02:51:11;;;;;;;57.07;19.27;;;-0.10;99.90;;;;;;4122642;28;20500;-79
2022/12/03 02:53:17;;;;;;;53.00;18.53;;;-0.10;99.90;;;;;;4125194;28;20512;-79
2022/12/03 02:55:20;;;;;;;60.73;19.53;;;-0.10;99.90;;;;;;4108454;28;20862;-79
2022/12/03 02:57:23;;;;;;;48.57;18.43;;;-0.10;99.90;;;;;;4122915;28;20461;-78
2022/12/03 02:59:26;;;;;;;52.63;19.30;;;-0.10;99.90;;;;;;4106525;28;20601;-78
2022/12/03 03:01:28;;;;;;;54.10;18.73;;;-0.10;99.90;;;;;;4114008;28;20936;-78
2022/12/03 03:03:32;;;;;;;55.40;19.07;;;-0.10;99.90;;;;;;4122065;28;20460;-79
2022/12/03 03:05:37;;;;;;;53.97;19.33;;;-0.10;99.90;;;;;;4124974;28;20452;-78
2022/12/03 03:07:39;;;;;;;57.33;19.97;;;-0.10;99.90;;;;;;4108448;28;20575;-78
2022/12/03 03:09:42;;;;;;;51.60;17.63;;;-0.10;99.90;;;;;;4103198;28;20527;-79
2022/12/03 03:11:44;;;;;;;52.87;17.87;;;-0.10;99.90;;;;;;4124879;28;20463;-79
2022/12/03 03:13:46;;;;;;;51.90;17.60;;;-0.10;99.90;;;;;;4105394;28;20589;-78
2022/12/03 03:15:50;;;;;;;49.40;18.73;;;-0.10;99.90;;;;;;4109947;28;21001;-78
2022/12/03 03:17:52;;;;;;;51.17;18.33;;;-0.10;99.90;;;;;;4122297;28;20453;-78
2022/12/03 03:19:54;;;;;;;55.47;19.10;;;-0.10;99.90;;;;;;4107094;28;20901;-79
2022/12/03 03:21:56;;;;;;;52.00;18.07;;;0.00;99.90;;;;;;4127035;28;20448;-80
2022/12/03 03:23:58;;;;;;;57.50;20.37;;;-0.10;99.90;;;;;;4110387;28;20494;-80
2022/12/03 03:26:02;;;;;;;60.57;19.27;;;0.30;99.90;;;;;;4122119;28;20572;-79
2022/12/03 03:28:05;;;;;;;53.90;19.23;;;0.60;99.90;;;;;;4125061;28;20541;-78
2022/12/03 03:30:09;;;;;;;58.90;19.77;;;-0.10;99.90;;;;;;4110447;28;20892;-80
2022/12/03 03:32:12;;;;;;;55.03;18.63;;;-0.10;99.90;;;;;;4111243;28;20576;-77
2022/12/03 03:34:15;;;;;;;50.07;18.40;;;0.30;99.90;;;;;;4123521;28;20486;-78
2022/12/03 03:36:18;;;;;;;51.50;19.60;;;-0.10;99.90;;;;;;4109682;28;20521;-77
2022/12/03 03:38:22;;;;;;;46.63;17.00;;;-0.20;99.90;;;;;;4129215;28;20829;-79
2022/12/03 03:40:25;;;;;;;55.30;18.30;;;-0.10;99.90;;;;;;4125761;28;20518;-78
2022/12/03 03:42:27;;;;;;;52.67;18.37;;;-0.20;99.90;;;;;;4126132;28;20452;-78
2022/12/03 03:44:29;;;;;;;53.30;17.70;;;-0.20;99.90;;;;;;4111757;28;20492;-78
2022/12/03 03:46:32;;;;;;;50.93;18.07;;;-0.20;99.90;;;;;;4127863;28;20460;-78
2022/12/03 03:48:36;;;;;;;50.93;17.77;;;0.00;99.90;;;;;;4129956;28;20988;-79
2022/12/03 03:50:38;;;;;;;49.30;16.90;;;0.60;99.90;;;;;;4125954;28;20579;-78
2022/12/03 03:52:41;;;;;;;49.13;18.50;;;-0.20;99.90;;;;;;4116977;28;20483;-80
2022/12/03 03:54:43;;;;;;;48.17;17.93;;;-0.20;99.90;;;;;;4128996;28;20477;-77
2022/12/03 03:56:45;;;;;;;47.47;17.93;;;-0.10;99.90;;;;;;4125629;28;21014;-79
2022/12/03 03:58:47;;;;;;;44.03;16.87;;;-0.20;99.90;;;;;;4130047;28;20455;-78
2022/12/03 04:00:49;;;;;;;51.57;18.97;;;-0.20;99.90;;;;;;4123984;28;20471;-79
2022/12/03 04:02:52;;;;;;;47.07;16.90;;;-0.10;99.90;;;;;;4123469;28;20507;-78
2022/12/03 04:04:56;;;;;;;49.63;17.53;;;-0.20;99.90;;;;;;4124339;28;20484;-79
2022/12/03 04:06:58;;;;;;;48.67;17.63;;;-0.10;99.90;;;;;;4109118;28;20464;-78
2022/12/03 04:09:00;;;;;;;48.93;17.47;;;-0.10;99.90;;;;;;4110147;28;20501;-79
2022/12/03 04:13:20;;;;;;;51.57;17.23;;;0.30;99.90;;;;;;4129100;28;20483;-77
2022/12/03 04:15:22;;;;;;;50.93;17.70;;;-0.10;99.90;;;;;;4106207;28;20461;-78
2022/12/03 04:17:24;;;;;;;52.10;17.63;;;0.30;99.90;;;;;;4129218;28;20208;-79
2022/12/03 04:19:26;;;;;;;51.70;17.57;;;-0.20;99.90;;;;;;4126283;28;20469;-78
2022/12/03 04:23:49;;;;;;;49.23;16.87;;;0.30;99.90;;;;;;4110529;28;20485;-80
2022/12/03 04:30:31;;;;;;;47.67;16.27;;;-0.20;99.90;;;;;;4122447;28;20663;-77
2022/12/03 04:37:13;;;;;;;43.20;16.37;;;-0.20;99.90;;;;;;4094484;28;20459;-77
2022/12/03 04:39:15;;;;;;;50.20;16.33;;;-0.20;99.90;;;;;;4122627;28;20464;-77
2022/12/03 04:41:17;;;;;;;45.90;15.23;;;-0.20;99.90;;;;;;4136009;28;21005;-79
2022/12/03 04:43:19;;;;;;;47.30;15.97;;;-0.10;99.90;;;;;;4129193;28;20933;-77
2022/12/03 04:45:21;;;;;;;43.23;15.90;;;-0.20;99.90;;;;;;4125843;28;20492;-77
2022/12/03 04:47:23;;;;;;;50.23;16.33;;;-0.20;99.90;;;;;;4119364;28;21036;-79
2022/12/03 04:49:25;;;;;;;51.80;17.90;;;-0.20;99.90;;;;;;4132055;28;21184;-79
2022/12/03 04:51:27;;;;;;;47.10;16.43;;;-0.20;99.90;;;;;;4121857;28;20499;-80
2022/12/03 04:53:30;;;;;;;49.40;16.20;;;-0.20;99.90;;;;;;4120771;28;20492;-77
2022/12/03 04:55:32;;;;;;;36.90;14.63;;;-0.20;99.90;;;;;;4123313;28;20964;-77
2022/12/03 04:57:34;;;;;;;47.97;16.20;;;-0.20;99.90;;;;;;4120431;28;20956;-78
2022/12/03 04:59:37;;;;;;;48.17;15.70;;;-0.20;99.90;;;;;;4123937;28;20983;-77
2022/12/03 05:01:38;;;;;;;45.77;16.00;;;-0.30;99.90;;;;;;4119579;28;21022;-78
2022/12/03 05:03:40;;;;;;;45.17;15.63;;;-0.30;99.90;;;;;;4126707;28;21006;-77
2022/12/03 05:05:42;;;;;;;47.00;14.87;;;-0.20;99.90;;;;;;4122691;28;20453;-77
2022/12/03 05:07:44;;;;;;;48.77;16.33;;;-0.20;99.90;;;;;;4103854;28;20465;-77
2022/12/03 05:09:48;;;;;;;46.00;14.93;;;-0.20;99.90;;;;;;4121784;28;20526;-77
2022/12/03 05:11:50;;;;;;;45.97;14.93;;;-0.20;99.90;;;;;;4119068;28;20456;-80
2022/12/03 05:13:52;;;;;;;43.87;16.07;;;-0.20;99.90;;;;;;4129082;28;20492;-78
2022/12/03 05:15:54;;;;;;;46.63;15.70;;;-0.30;99.90;;;;;;4125116;28;20459;-77
2022/12/03 05:17:56;;;;;;;50.20;17.10;;;-0.20;99.90;;;;;;4110343;28;20482;-78
2022/12/03 05:22:18;;;;;;;46.43;16.40;;;-0.20;99.90;;;;;;4110377;28;20572;-78
2022/12/03 05:24:19;;;;;;;42.90;14.20;;;-0.20;99.90;;;;;;4127250;28;20484;-78
2022/12/03 05:26:23;;;;;;;49.17;16.33;;;-0.20;99.90;;;;;;4103846;28;20469;-78
2022/12/03 05:28:25;;;;;;;42.97;15.67;;;-0.30;99.90;;;;;;4099683;28;20538;-78
2022/12/03 05:30:27;;;;;;;46.77;15.57;;;-0.20;99.90;;;;;;4116536;28;20555;-78
2022/12/03 05:32:29;;;;;;;44.50;16.47;;;-0.20;99.90;;;;;;4125225;28;20452;-78
2022/12/03 05:34:30;;;;;;;46.83;15.53;;;-0.30;99.90;;;;;;4115768;28;20512;-77
2022/12/03 05:36:32;;;;;;;46.67;15.93;;;-0.30;99.90;;;;;;4120017;28;20873;-78
2022/12/03 05:38:34;;;;;;;42.83;15.90;;;-0.30;99.90;;;;;;4110196;28;20496;-77
2022/12/03 05:40:36;;;;;;;48.37;16.53;;;-0.30;99.90;;;;;;4120412;28;20954;-77
2022/12/03 05:42:53;;;;;;;41.47;15.77;;;-0.30;99.90;;;;;;4130976;28;20458;-77
2022/12/03 05:44:54;;;;;;;46.03;16.13;;;-0.30;99.90;;;;;;4123318;28;20467;-76
2022/12/03 05:46:56;;;;;;;50.50;17.13;;;-0.30;99.90;;;;;;4110323;28;20924;-77
2022/12/03 05:48:58;;;;;;;44.10;15.00;;;-0.30;99.90;;;;;;4125904;28;20516;-76
2022/12/03 05:51:00;;;;;;;48.17;17.37;;;-0.30;99.90;;;;;;4120728;28;20545;-77
2022/12/03 05:53:03;;;;;;;46.00;16.17;;;-0.30;99.90;;;;;;4105869;28;21078;-77
2022/12/03 05:55:05;;;;;;;40.70;15.50;;;-0.30;99.90;;;;;;4120701;28;20893;-77
2022/12/03 05:57:07;;;;;;;45.50;16.77;;;-0.30;99.90;;;;;;4127742;28;20910;-78
2022/12/03 05:59:10;;;;;;;47.07;16.50;;;-0.30;99.90;;;;;;4129553;28;20498;-76
2022/12/03 06:01:12;;;;;;;42.43;14.63;;;-0.30;99.90;;;;;;4123107;28;20451;-76
2022/12/03 06:03:14;;;;;;;44.57;15.10;;;-0.30;99.90;;;;;;4109416;28;20462;-78
2022/12/03 06:05:18;;;;;;;44.33;17.33;;;-0.30;99.90;;;;;;4124113;28;21258;-77
2022/12/03 06:07:20;;;;;;;50.70;16.57;;;-0.30;99.90;;;;;;4108309;28;20482;-78
2022/12/03 06:09:22;;;;;;;43.10;16.10;;;-0.30;99.90;;;;;;4125404;28;20464;-78
2022/12/03 06:11:24;;;;;;;46.87;16.73;;;-0.30;99.90;;;;;;4123898;28;20710;-77
2022/12/03 06:13:26;;;;;;;47.20;16.07;;;-0.20;99.90;;;;;;4125235;28;21174;-76
2022/12/03 06:15:29;;;;;;;46.37;16.60;;;-0.30;99.90;;;;;;4123924;28;20456;-77
2022/12/03 06:17:31;;;;;;;42.93;16.50;;;-0.30;99.90;;;;;;4122588;28;20471;-78
2022/12/03 06:19:33;;;;;;;43.17;15.60;;;-0.10;99.90;;;;;;4107598;28;20584;-77
2022/12/03 06:21:35;;;;;;;46.37;16.20;;;-0.30;99.90;;;;;;4124226;28;21077;-76
2022/12/03 06:23:43;;;;;;;50.00;16.57;;;-0.30;99.90;;;;;;4118287;28;20474;-77
2022/12/03 06:25:45;;;;;;;46.17;15.90;;;-0.30;99.90;;;;;;4128069;28;20474;-77
2022/12/03 06:27:47;;;;;;;43.07;15.47;;;-0.30;99.90;;;;;;4128948;28;20452;-77
2022/12/03 06:29:49;;;;;;;45.67;15.70;;;-0.30;99.90;;;;;;4110146;28;21015;-78
2022/12/03 06:31:52;;;;;;;42.33;15.53;;;-0.30;99.90;;;;;;4111287;28;20466;-78
2022/12/03 06:33:54;;;;;;;39.60;15.27;;;-0.30;99.90;;;;;;4121501;28;20512;-76
2022/12/03 06:35:56;;;;;;;40.17;14.43;;;-0.30;99.90;;;;;;4124943;28;20984;-76
2022/12/03 06:37:58;;;;;;;46.90;16.30;;;-0.30;99.90;;;;;;4123330;28;21006;-76
2022/12/03 06:40:00;;;;;;;44.73;15.00;;;-0.20;99.90;;;;;;4125181;28;20467;-77
2022/12/03 06:42:02;;;;;;;39.13;14.97;;;-0.30;99.90;;;;;;4121372;28;20593;-77
2022/12/03 06:44:04;;;;;;;43.10;14.50;;;-0.30;99.90;;;;;;4105538;28;20477;-76
2022/12/03 06:46:06;;;;;;;38.63;14.77;;;-0.30;99.90;;;;;;4109744;28;20495;-76
2022/12/03 06:48:09;;;;;;;43.53;15.13;;;-0.30;99.90;;;;;;4120557;28;20464;-77
2022/12/03 06:50:12;;;;;;;42.63;15.83;;;-0.30;99.90;;;;;;4124159;28;20491;-77
2022/12/03 06:52:14;;;;;;;50.33;17.30;;;-0.30;99.90;;;;;;4115052;28;20858;-78
2022/12/03 06:54:16;;;;;;;35.87;13.50;;;-0.30;99.90;;;;;;4118398;28;20619;-78
2022/12/03 06:56:18;;;;;;;39.57;15.10;;;-0.30;99.90;;;;;;4105309;28;20811;-77
2022/12/03 06:58:20;;;;;;;47.07;16.23;;;-0.30;99.90;;;;;;4126167;28;20457;-78
2022/12/03 07:00:22;;;;;;;42.50;15.50;;;-0.30;99.90;;;;;;4120232;28;20480;-75
2022/12/03 07:02:24;;;;;;;41.97;14.80;;;-0.30;99.90;;;;;;4103906;28;20844;-77
2022/12/03 07:04:27;;;;;;;42.87;15.80;;;-0.30;99.90;;;;;;4108827;28;20465;-78
2022/12/03 07:06:29;;;;;;;41.23;15.13;;;-0.30;99.90;;;;;;4125828;28;20514;-76
2022/12/03 07:08:31;;;;;;;44.13;15.67;;;-0.30;99.90;;;;;;4132216;28;20963;-77
2022/12/03 07:10:33;;;;;;;39.50;14.53;;;-0.30;99.90;;;;;;4130399;28;20460;-76
2022/12/03 07:12:35;;;;;;;41.47;15.23;;;-0.30;99.90;;;;;;4126096;28;20465;-76
2022/12/03 07:14:37;;;;;;;40.00;14.63;;;-0.30;99.90;;;;;;4124655;28;20579;-76
2022/12/03 07:16:41;;;;;;;36.87;14.47;;;-0.30;99.90;;;;;;4134880;28;20492;-76
2022/12/03 07:18:43;;;;;;;40.73;15.73;;;-0.30;99.90;;;;;;4128166;28;20551;-77
2022/12/03 07:20:47;;;;;;;39.10;14.83;;;-0.30;99.90;;;;;;4124116;28;20452;-76
2022/12/03 07:22:49;;;;;;;46.27;15.80;;;-0.30;99.90;;;;;;4120021;28;20484;-76
2022/12/03 07:24:51;;;;;;;44.03;15.57;;;-0.30;99.90;;;;;;4120236;28;20504;-77
2022/12/03 07:26:53;;;;;;;34.77;14.37;;;-0.30;99.90;;;;;;4124045;28;20464;-78
2022/12/03 07:28:55;;;;;;;43.30;16.47;;;-0.30;99.90;;;;;;4126452;28;20460;-79
2022/12/03 07:30:57;;;;;;;40.80;16.20;;;-0.30;99.90;;;;;;4122854;28;20480;-78
2022/12/03 07:32:59;;;;;;;43.77;15.97;;;-0.30;99.90;;;;;;4121822;28;20461;-79
2022/12/03 07:35:01;;;;;;;43.87;15.63;;;-0.30;99.90;;;;;;4121377;28;20574;-79
2022/12/03 07:37:05;;;;;;;41.30;16.10;;;-0.30;99.90;;;;;;4122296;28;20476;-78
2022/12/03 07:39:07;;;;;;;41.90;15.43;;;-0.30;99.90;;;;;;4108135;28;20509;-79
2022/12/03 07:41:09;;;;;;;42.37;16.47;;;-0.30;99.90;;;;;;4123257;28;20976;-78
2022/12/03 07:43:10;;;;;;;45.53;15.23;;;-0.20;99.90;;;;;;4126248;28;20456;-77
2022/12/03 07:45:12;;;;;;;41.30;14.30;;;-0.20;99.90;;;;;;4121541;28;20543;-78
2022/12/03 07:47:14;;;;;;;42.00;15.83;;;-0.30;99.90;;;;;;4127934;28;20457;-78
2022/12/03 07:49:16;;;;;;;40.73;16.90;;;-0.30;99.90;;;;;;4123661;28;20867;-78
2022/12/03 07:51:18;;;;;;;41.10;15.90;;;-0.20;99.90;;;;;;4124716;28;20468;-79
2022/12/03 07:53:22;;;;;;;41.00;15.00;;;-0.20;99.90;;;;;;4128053;28;20475;-77
2022/12/03 07:55:24;;;;;;;45.20;16.43;;;-0.20;99.90;;;;;;4117683;28;20531;-79
2022/12/03 07:57:26;;;;;;;45.57;15.80;;;0.60;99.90;;;;;;4109661;28;20467;-78
2022/12/03 07:59:28;;;;;;;38.57;14.63;;;-0.20;99.90;;;;;;4124126;28;20450;-79
2022/12/03 08:01:30;;;;;;;40.40;16.07;;;-0.20;99.90;;;;;;4123215;28;20465;-78
2022/12/03 08:03:32;;;;;;;38.17;15.17;;;-0.20;99.90;;;;;;4123450;28;20821;-77
2022/12/03 08:05:34;;;;;;;43.37;16.07;;;-0.20;99.90;;;;;;4125210;28;20464;-77
2022/12/03 08:07:36;;;;;;;45.80;16.23;;;-0.20;99.90;;;;;;4124203;28;20968;-76
2022/12/03 08:09:40;;;;;;;43.00;15.53;;;0.30;99.90;;;;;;4107236;28;20532;-78
2022/12/03 08:11:43;;;;;;;38.93;15.10;;;-0.20;99.90;;;;;;4123213;28;20459;-78
2022/12/03 08:13:45;;;;;;;41.67;16.13;;;-0.20;99.90;;;;;;4120852;28;21268;-78
2022/12/03 08:15:47;;;;;;;44.37;16.30;;;-0.20;99.90;;;;;;4105491;28;20892;-76
2022/12/03 08:17:54;;;;;;;40.53;16.07;;;-0.10;99.90;;;;;;4123407;28;20540;-76
2022/12/03 08:19:56;;;;;;;45.00;16.93;;;-0.20;99.90;;;;;;4127369;28;20533;-77
2022/12/03 08:22:00;;;;;;;40.00;15.53;;;-0.20;99.90;;;;;;4126574;28;20461;-76
2022/12/03 08:24:13;;;;;;;43.70;15.73;;;-0.20;99.90;;;;;;4123413;28;21054;-76
2022/12/03 08:26:23;;;;;;;43.67;17.67;;;-0.10;99.90;;;;;;4121797;28;20495;-77
2022/12/03 08:28:26;;;;;;;43.60;16.13;;;-0.20;99.90;;;;;;4107831;28;20486;-78
2022/12/03 08:30:28;;;;;;;49.43;17.43;;;-0.20;99.90;;;;;;4119787;28;20448;-77
2022/12/03 08:32:31;;;;;;;38.77;15.93;;;-0.10;99.90;;;;;;4123147;28;20523;-78
2022/12/03 08:34:39;;;;;;;47.03;18.00;;;-0.10;99.90;;;;;;4117686;28;20492;-77
2022/12/03 08:36:41;;;;;;;51.80;18.10;;;-0.10;99.90;;;;;;4119515;28;20456;-78
2022/12/03 08:38:47;;;;;;;50.90;18.13;;;-0.10;99.90;;;;;;4122585;28;20459;-77
2022/12/03 08:40:51;;;;;;;52.80;19.80;;;-0.10;99.90;;;;;;4121738;28;20468;-76
2022/12/03 08:42:54;;;;;;;51.50;19.03;;;-0.10;99.90;;;;;;4121529;28;20457;-76
2022/12/03 08:44:58;;;;;;;43.30;16.43;;;0.00;99.90;;;;;;4117374;28;20482;-76
2022/12/03 08:47:11;;;;;;;51.00;19.43;;;0.00;99.90;;;;;;4129740;28;20971;-76
2022/12/03 08:49:18;;;;;;;46.33;17.97;;;0.00;99.90;;;;;;4124226;28;20481;-79
2022/12/03 08:51:23;;;;;;;46.23;16.90;;;0.00;99.90;;;;;;4125694;28;20508;-76
2022/12/03 08:53:36;;;;;;;47.50;17.70;;;0.00;99.90;;;;;;4116595;28;20513;-77
2022/12/03 08:55:44;;;;;;;46.30;17.00;;;0.00;99.90;;;;;;4119784;28;20486;-78
2022/12/03 08:57:46;;;;;;;45.30;17.87;;;0.10;99.90;;;;;;4118813;28;20893;-77
2022/12/03 08:59:52;;;;;;;50.70;18.50;;;0.10;99.90;;;;;;4119600;28;20492;-78
2022/12/03 09:01:54;;;;;;;48.80;17.60;;;0.20;99.90;;;;;;4118128;28;20950;-78
2022/12/03 09:03:58;;;;;;;50.30;18.73;;;0.30;99.90;;;;;;4101121;28;20521;-78
2022/12/03 09:06:00;;;;;;;51.07;18.83;;;0.10;99.90;;;;;;4119746;28;20451;-78
2022/12/03 09:08:02;;;;;;;43.33;16.90;;;0.30;99.90;;;;;;4125062;28;20578;-77
2022/12/03 09:10:05;;;;;;;45.57;17.40;;;0.10;99.90;;;;;;4122812;28;20522;-78
2022/12/03 09:12:07;;;;;;;42.73;16.73;;;0.10;99.90;;;;;;4120952;28;20478;-76
2022/12/03 09:14:09;;;;;;;46.47;17.93;;;0.10;99.90;;;;;;4127862;28;20484;-77
2022/12/03 09:16:13;;;;;;;45.60;17.97;;;0.10;99.90;;;;;;4108248;28;20457;-79
2022/12/03 09:18:17;;;;;;;46.30;17.80;;;0.10;99.90;;;;;;4116968;28;20525;-78
2022/12/03 09:20:19;;;;;;;46.23;17.93;;;0.20;99.90;;;;;;4122796;28;20450;-78
2022/12/03 09:22:21;;;;;;;44.40;17.60;;;0.10;99.90;;;;;;4108787;28;21032;-77
2022/12/03 09:24:23;;;;;;;47.83;17.80;;;0.10;99.90;;;;;;4124985;28;20512;-77
2022/12/03 09:26:25;;;;;;;42.73;16.50;;;0.20;99.90;;;;;;4105837;28;20460;-78
2022/12/03 09:28:27;;;;;;;42.23;16.23;;;0.10;99.90;;;;;;4105069;28;20464;-79
2022/12/03 09:30:29;;;;;;;44.63;18.07;;;0.10;99.90;;;;;;4111454;28;20956;-78
2022/12/03 09:32:33;;;;;;;46.17;16.43;;;0.40;99.90;;;;;;4125688;28;20508;-78
2022/12/03 09:34:35;;;;;;;45.83;17.67;;;0.10;99.90;;;;;;4133729;28;20482;-76
2022/12/03 09:36:37;;;;;;;43.33;17.10;;;0.10;99.90;;;;;;4128890;28;21163;-78
2022/12/03 09:38:39;;;;;;;45.13;17.40;;;0.20;99.90;;;;;;4133603;28;20469;-78
2022/12/03 09:40:41;;;;;;;45.47;18.27;;;0.20;99.90;;;;;;4121567;28;20572;-78
2022/12/03 09:42:43;;;;;;;40.43;16.90;;;0.20;99.90;;;;;;4126899;28;20473;-78
2022/12/03 09:44:47;;;;;;;42.83;16.60;;;0.10;99.90;;;;;;4130135;28;20488;-79
2022/12/03 09:46:50;;;;;;;44.20;16.97;;;0.20;99.90;;;;;;4123180;28;20878;-80
2022/12/03 09:48:54;;;;;;;47.40;17.77;;;0.20;99.90;;;;;;4107797;28;20546;-80
2022/12/03 09:50:56;;;;;;;41.27;16.67;;;0.20;99.90;;;;;;4124958;28;20459;-79
2022/12/03 09:53:01;;;;;;;43.23;16.53;;;0.70;99.90;;;;;;4123829;28;20464;-79
2022/12/03 09:55:11;;;;;;;48.13;18.40;;;0.10;99.90;;;;;;4123639;28;20543;-78
2022/12/03 09:57:13;;;;;;;42.30;17.33;;;0.10;99.90;;;;;;4113901;28;20548;-79
2022/12/03 09:59:16;;;;;;;41.87;16.97;;;0.20;99.90;;;;;;4103716;28;20543;-79
2022/12/03 10:01:18;;;;;;;41.50;16.93;;;0.10;99.90;;;;;;4122215;28;20464;-79
2022/12/03 10:03:23;;;;;;;42.00;16.80;;;0.10;99.90;;;;;;4113467;28;20470;-77
2022/12/03 10:05:26;;;;;;;42.27;17.67;;;0.10;99.90;;;;;;4127688;28;20965;-79
2022/12/03 10:07:28;;;;;;;42.23;17.40;;;0.70;99.90;;;;;;4113950;28;20453;-79
2022/12/03 10:09:30;;;;;;;38.87;15.67;;;0.10;99.90;;;;;;4112523;28;20486;-76
2022/12/03 10:11:34;;;;;;;39.97;16.10;;;0.10;99.90;;;;;;4128726;28;20489;-77
2022/12/03 10:13:37;;;;;;;41.73;16.17;;;0.10;99.90;;;;;;4107382;28;20537;-80
2022/12/03 10:15:39;;;;;;;43.97;18.00;;;0.90;99.90;;;;;;4124898;28;20484;-79
2022/12/03 10:17:41;;;;;;;38.10;16.53;;;0.20;99.90;;;;;;4106230;28;20476;-79
2022/12/03 10:19:44;;;;;;;39.07;16.97;;;0.40;99.90;;;;;;4126028;28;20459;-79
2022/12/03 10:21:47;;;;;;;40.77;16.53;;;0.20;99.90;;;;;;4118119;28;20451;-80
2022/12/03 10:23:50;;;;;;;42.13;17.00;;;0.80;99.90;;;;;;4125364;28;20525;-80
2022/12/03 10:25:55;;;;;;;43.23;17.20;;;0.20;99.90;;;;;;4128432;28;20461;-80
2022/12/03 10:27:59;;;;;;;44.90;17.47;;;0.20;99.90;;;;;;4123906;28;20453;-80
2022/12/03 10:30:03;;;;;;;43.23;17.70;;;0.20;99.90;;;;;;4127442;28;20457;-80
2022/12/03 10:32:08;;;;;;;41.47;17.17;;;0.10;99.90;;;;;;4123252;28;20446;-80
2022/12/03 10:34:10;;;;;;;43.17;18.13;;;0.30;99.90;;;;;;4124430;28;20493;-80
2022/12/03 10:36:19;;;;;;;39.90;16.60;;;0.30;99.90;;;;;;4108902;28;21349;-80
2022/12/03 10:38:23;;;;;;;43.80;17.23;;;0.30;99.90;;;;;;4128343;28;20462;-80
2022/12/03 10:40:27;;;;;;;40.47;16.33;;;0.30;99.90;;;;;;4124269;28;20466;-80
2022/12/03 10:42:31;;;;;;;35.20;15.50;;;0.30;99.90;;;;;;4113139;28;20457;-80